Time;durP1;ratioP1;P1;durP2;ratioP2;P2;SDS_P1;SDS_P2;PMS_P1;PMS_P2;Temp;Humidity;BMP_temperature;BMP_pressure;BME280_temperature;BME280_humidity;BME280_pressure;Samples;Min_cycle;Max_cycle;Signal;HPM_P1;HPM_P2
2022/01/28 00:01:02;;;;;;;4.73;2.17;;;;;;;;;;5089849;28;20190;-59
2022/01/28 00:03:28;;;;;;;12.43;2.77;;;;;;;;;;5088421;28;20186;-59
2022/01/28 00:05:55;;;;;;;4.70;1.90;;;;;;;;;;5069473;28;20230;-59
2022/01/28 00:08:21;;;;;;;5.57;2.47;;;;;;;;;;5090376;28;20238;-59
2022/01/28 00:10:50;;;;;;;8.70;2.03;;;;;;;;;;5097496;28;20183;-59
2022/01/28 00:13:32;;;;;;;6.80;2.30;;;;;;;;;;5103555;28;20220;-59
2022/01/28 00:38:28;;;;;;;6.73;2.17;;;;;;;;;;5077784;28;20259;-59
2022/01/28 00:40:56;;;;;;;8.10;2.23;;;;;;;;;;5099689;28;20352;-59
2022/01/28 00:43:22;;;;;;;4.07;2.07;;;;;;;;;;5075696;28;20267;-59
2022/01/28 00:45:51;;;;;;;8.53;2.30;;;;;;;;;;5084527;28;20203;-59
2022/01/28 00:48:18;;;;;;;10.27;2.57;;;;;;;;;;5063539;28;20714;-60
2022/01/28 00:50:45;;;;;;;9.37;2.67;;;;;;;;;;5078010;28;20644;-59
2022/01/28 00:53:11;;;;;;;7.37;1.90;;;;;;;;;;5071984;28;20177;-59
2022/01/28 00:55:37;;;;;;;5.77;1.83;;;;;;;;;;5064569;28;20559;-59
2022/01/28 00:58:04;;;;;;;7.57;2.17;;;;;;;;;;5068137;28;20598;-59
2022/01/28 01:00:30;;;;;;;10.97;2.30;;;;;;;;;;5053318;28;20556;-57
2022/01/28 01:02:57;;;;;;;8.30;2.23;;;;;;;;;;5064762;28;20904;-57
2022/01/28 01:05:23;;;;;;;6.63;2.30;;;;;;;;;;5053276;28;20220;-59
2022/01/28 01:07:50;;;;;;;4.37;2.07;;;;;;;;;;5056960;28;20590;-59
2022/01/28 01:10:19;;;;;;;7.67;2.23;;;;;;;;;;5072207;28;20213;-59
2022/01/28 01:12:47;;;;;;;8.03;2.50;;;;;;;;;;5049573;28;20168;-59
2022/01/28 01:15:17;;;;;;;6.80;2.97;;;;;;;;;;5069193;28;20647;-60
2022/01/28 01:17:56;;;;;;;7.40;2.73;;;;;;;;;;5077969;28;20640;-59
2022/01/28 01:23:09;;;;;;;11.17;2.30;;;;;;;;;;5065384;28;20639;-59
2022/01/28 01:25:48;;;;;;;5.87;2.47;;;;;;;;;;5050063;28;20245;-59
2022/01/28 01:28:26;;;;;;;5.33;2.23;;;;;;;;;;5071722;28;20645;-57
2022/01/28 01:30:52;;;;;;;6.27;2.03;;;;;;;;;;5045981;28;20168;-57
2022/01/28 01:33:20;;;;;;;6.80;2.23;;;;;;;;;;5048691;28;20173;-60
2022/01/28 01:35:46;;;;;;;5.10;2.50;;;;;;;;;;5056427;28;20485;-57
2022/01/28 01:38:13;;;;;;;5.00;1.90;;;;;;;;;;5058472;28;20182;-59
2022/01/28 01:40:46;;;;;;;16.07;2.83;;;;;;;;;;5041492;28;20237;-59
2022/01/28 01:43:20;;;;;;;7.63;2.53;;;;;;;;;;5049588;28;20179;-59
2022/01/28 01:53:51;;;;;;;8.13;2.63;;;;;;;;;;5065865;28;20215;-57
2022/01/28 01:56:20;;;;;;;8.23;2.10;;;;;;;;;;5044348;28;20201;-59
2022/01/28 01:58:50;;;;;;;6.67;2.43;;;;;;;;;;5059159;28;20222;-59
2022/01/28 02:01:16;;;;;;;5.80;2.37;;;;;;;;;;5088158;28;20171;-59
2022/01/28 02:03:46;;;;;;;3.83;1.80;;;;;;;;;;5085899;28;20184;-59
2022/01/28 02:06:12;;;;;;;7.40;1.77;;;;;;;;;;5086704;28;20195;-59
2022/01/28 02:08:38;;;;;;;4.37;2.40;;;;;;;;;;5089667;28;20180;-57
2022/01/28 02:11:05;;;;;;;6.07;2.30;;;;;;;;;;5077719;28;20164;-59
2022/01/28 02:13:37;;;;;;;11.47;2.60;;;;;;;;;;5078552;28;20651;-58
2022/01/28 02:16:04;;;;;;;6.70;2.33;;;;;;;;;;5089131;28;20288;-59
2022/01/28 02:18:30;;;;;;;8.13;2.20;;;;;;;;;;5084467;28;20659;-59
2022/01/28 02:21:04;;;;;;;6.43;2.07;;;;;;;;;;5086193;28;20176;-59
2022/01/28 02:23:34;;;;;;;5.20;1.70;;;;;;;;;;5086372;28;20297;-58
2022/01/28 02:26:04;;;;;;;7.27;2.67;;;;;;;;;;5085128;28;20195;-57
2022/01/28 02:28:35;;;;;;;10.43;2.03;;;;;;;;;;5089945;28;20179;-57
2022/01/28 02:31:05;;;;;;;8.20;1.93;;;;;;;;;;5077058;28;20208;-57
2022/01/28 02:33:32;;;;;;;9.33;2.07;;;;;;;;;;5064117;28;20230;-56
2022/01/28 02:36:03;;;;;;;11.07;3.23;;;;;;;;;;5081831;28;20647;-57
2022/01/28 02:38:30;;;;;;;7.40;2.40;;;;;;;;;;5086389;28;20272;-57
2022/01/28 02:40:59;;;;;;;9.40;2.30;;;;;;;;;;5094040;28;20657;-57
2022/01/28 02:46:02;;;;;;;9.93;2.17;;;;;;;;;;5094429;28;20256;-57
2022/01/28 02:48:30;;;;;;;7.67;2.20;;;;;;;;;;5084476;28;20175;-57
2022/01/28 02:51:16;;;;;;;8.40;2.07;;;;;;;;;;5073362;28;20634;-57
2022/01/28 02:58:55;;;;;;;8.70;2.67;;;;;;;;;;5099672;28;20233;-57
2022/01/28 03:01:21;;;;;;;7.27;2.80;;;;;;;;;;5094024;28;20187;-57
2022/01/28 03:03:48;;;;;;;5.43;2.07;;;;;;;;;;5087016;28;20194;-57
2022/01/28 03:06:15;;;;;;;5.40;2.30;;;;;;;;;;5078612;28;20256;-57
2022/01/28 03:08:51;;;;;;;8.37;2.50;;;;;;;;;;5095544;28;20168;-57
2022/01/28 03:16:52;;;;;;;6.60;2.30;;;;;;;;;;5095454;28;20171;-57
2022/01/28 03:19:21;;;;;;;5.20;2.20;;;;;;;;;;5087054;28;20685;-57
2022/01/28 03:21:59;;;;;;;6.60;1.90;;;;;;;;;;5089611;28;20233;-58
2022/01/28 03:24:29;;;;;;;10.17;2.30;;;;;;;;;;5101043;28;20227;-56
2022/01/28 03:27:02;;;;;;;9.93;2.00;;;;;;;;;;5091399;28;20232;-57
2022/01/28 03:29:28;;;;;;;13.60;2.10;;;;;;;;;;5096785;28;20179;-58
2022/01/28 03:31:55;;;;;;;7.93;1.90;;;;;;;;;;5089408;28;20225;-57
2022/01/28 03:34:21;;;;;;;7.17;2.20;;;;;;;;;;5082561;28;20183;-56
2022/01/28 03:36:48;;;;;;;8.23;1.73;;;;;;;;;;5090895;28;20572;-57
2022/01/28 03:39:16;;;;;;;6.27;1.70;;;;;;;;;;5084591;28;20195;-57
2022/01/28 03:41:43;;;;;;;9.63;2.10;;;;;;;;;;5093729;28;20186;-57
2022/01/28 03:44:12;;;;;;;9.33;2.50;;;;;;;;;;5088161;28;20561;-57
2022/01/28 03:46:44;;;;;;;5.20;1.53;;;;;;;;;;5090490;28;20536;-57
2022/01/28 03:49:10;;;;;;;10.07;2.53;;;;;;;;;;5080747;28;20596;-57
2022/01/28 03:51:37;;;;;;;8.33;2.17;;;;;;;;;;5100371;28;20179;-57
2022/01/28 03:54:03;;;;;;;9.33;2.80;;;;;;;;;;5086019;28;20183;-57
2022/01/28 03:56:30;;;;;;;7.13;2.17;;;;;;;;;;5089238;28;20212;-57
2022/01/28 03:58:56;;;;;;;6.03;2.00;;;;;;;;;;5101788;28;20219;-57
2022/01/28 04:01:30;;;;;;;7.53;2.20;;;;;;;;;;5089662;28;20208;-57
2022/01/28 04:11:56;;;;;;;7.93;2.43;;;;;;;;;;5089902;28;20207;-57
2022/01/28 04:19:40;;;;;;;6.33;2.37;;;;;;;;;;5103683;28;20261;-58
2022/01/28 04:22:09;;;;;;;6.80;2.23;;;;;;;;;;5097198;28;20709;-57
2022/01/28 04:24:35;;;;;;;7.53;1.90;;;;;;;;;;5108641;28;20186;-56
2022/01/28 04:27:01;;;;;;;8.80;2.40;;;;;;;;;;5071903;28;20197;-57
2022/01/28 04:29:33;;;;;;;8.50;2.10;;;;;;;;;;5087837;28;20220;-58
2022/01/28 04:32:00;;;;;;;5.70;1.93;;;;;;;;;;5098864;28;20215;-57
2022/01/28 04:34:27;;;;;;;8.97;2.20;;;;;;;;;;5086497;28;20180;-57
2022/01/28 04:37:05;;;;;;;6.37;2.27;;;;;;;;;;5074723;28;20188;-57
2022/01/28 04:39:41;;;;;;;10.90;2.50;;;;;;;;;;5087852;28;20190;-56
2022/01/28 04:42:35;;;;;;;7.40;2.27;;;;;;;;;;5084285;28;20191;-57
2022/01/28 04:45:18;;;;;;;6.27;2.10;;;;;;;;;;5092814;28;20879;-57
2022/01/28 04:50:43;;;;;;;10.93;2.57;;;;;;;;;;5089014;28;20184;-57
2022/01/28 04:53:17;;;;;;;6.43;2.20;;;;;;;;;;5085048;28;20187;-57
2022/01/28 04:56:10;;;;;;;8.57;2.60;;;;;;;;;;5090166;28;20170;-57
2022/01/28 04:58:55;;;;;;;7.03;2.03;;;;;;;;;;5075033;28;20313;-57
2022/01/28 05:23:21;;;;;;;6.33;2.47;;;;;;;;;;5067982;28;20570;-58
2022/01/28 05:28:12;;;;;;;5.30;2.63;;;;;;;;;;5071261;28;20169;-58
2022/01/28 05:30:38;;;;;;;6.27;2.23;;;;;;;;;;5049243;28;20632;-58
2022/01/28 05:33:05;;;;;;;4.90;2.23;;;;;;;;;;5047558;28;20187;-57
2022/01/28 05:35:34;;;;;;;7.63;2.70;;;;;;;;;;5067535;28;20180;-58
2022/01/28 05:38:00;;;;;;;5.93;2.47;;;;;;;;;;5039032;28;20235;-58
2022/01/28 05:40:26;;;;;;;9.13;2.60;;;;;;;;;;5058125;28;20271;-57
2022/01/28 05:42:52;;;;;;;6.70;2.20;;;;;;;;;;5056859;28;20180;-58
2022/01/28 05:45:22;;;;;;;6.87;2.63;;;;;;;;;;5049622;28;21145;-58
2022/01/28 05:47:48;;;;;;;11.50;2.90;;;;;;;;;;5056140;28;20181;-58
2022/01/28 05:50:20;;;;;;;6.83;2.07;;;;;;;;;;5040989;28;20179;-58
2022/01/28 05:52:47;;;;;;;7.63;2.73;;;;;;;;;;5038899;28;20475;-58
2022/01/28 05:55:16;;;;;;;4.70;2.00;;;;;;;;;;5065282;28;20181;-58
2022/01/28 05:57:45;;;;;;;8.97;2.23;;;;;;;;;;5048367;28;20239;-58
2022/01/28 06:00:16;;;;;;;7.23;2.10;;;;;;;;;;5037847;28;20262;-58
2022/01/28 06:02:43;;;;;;;7.60;2.37;;;;;;;;;;5034698;28;20199;-58
2022/01/28 06:05:09;;;;;;;4.73;2.00;;;;;;;;;;5038290;28;20220;-58
2022/01/28 06:07:41;;;;;;;10.27;2.10;;;;;;;;;;5036215;28;20194;-59
2022/01/28 06:10:09;;;;;;;8.43;2.73;;;;;;;;;;5063574;28;20650;-60
2022/01/28 06:12:42;;;;;;;4.80;1.80;;;;;;;;;;5031882;28;20590;-59
2022/01/28 06:15:09;;;;;;;8.93;2.10;;;;;;;;;;5061100;28;20577;-60
2022/01/28 06:17:35;;;;;;;5.63;2.17;;;;;;;;;;5034162;28;20188;-60
2022/01/28 06:20:02;;;;;;;11.70;2.00;;;;;;;;;;5046412;28;20184;-60
2022/01/28 06:22:29;;;;;;;12.03;2.47;;;;;;;;;;5047091;28;20192;-59
2022/01/28 06:24:55;;;;;;;4.67;2.50;;;;;;;;;;5048478;28;20169;-60
2022/01/28 06:27:22;;;;;;;9.00;2.10;;;;;;;;;;5044007;28;20176;-60
2022/01/28 06:29:49;;;;;;;7.00;1.93;;;;;;;;;;5049745;28;20212;-60
2022/01/28 06:32:16;;;;;;;8.57;2.10;;;;;;;;;;5068914;28;20582;-60
2022/01/28 06:34:43;;;;;;;6.03;2.63;;;;;;;;;;5067746;28;20184;-60
2022/01/28 06:37:10;;;;;;;8.27;2.17;;;;;;;;;;5055122;28;20360;-60
2022/01/28 06:39:36;;;;;;;6.43;2.20;;;;;;;;;;5034244;28;20188;-61
2022/01/28 06:42:02;;;;;;;9.17;1.70;;;;;;;;;;5062602;28;20187;-61
2022/01/28 06:44:30;;;;;;;11.20;2.63;;;;;;;;;;5048863;28;20184;-61
2022/01/28 06:46:56;;;;;;;3.23;1.80;;;;;;;;;;5049202;28;20192;-62
2022/01/28 06:49:23;;;;;;;6.93;2.50;;;;;;;;;;5045711;28;20184;-61
2022/01/28 06:51:49;;;;;;;5.10;2.10;;;;;;;;;;5056619;28;20653;-60
2022/01/28 06:54:15;;;;;;;7.47;2.40;;;;;;;;;;5047460;28;20205;-61
2022/01/28 06:56:41;;;;;;;5.83;2.03;;;;;;;;;;5043374;28;20739;-60
2022/01/28 06:59:07;;;;;;;10.63;2.93;;;;;;;;;;5054846;28;20252;-59
2022/01/28 07:01:36;;;;;;;5.20;2.13;;;;;;;;;;5071844;28;20277;-59
2022/01/28 07:04:04;;;;;;;6.40;2.20;;;;;;;;;;5050597;28;20189;-59
2022/01/28 07:06:31;;;;;;;11.30;2.60;;;;;;;;;;5064112;28;20200;-59
2022/01/28 07:08:57;;;;;;;8.50;2.43;;;;;;;;;;5051384;28;20188;-59
2022/01/28 07:11:23;;;;;;;4.00;1.83;;;;;;;;;;5051320;28;20180;-57
2022/01/28 07:13:50;;;;;;;11.00;2.57;;;;;;;;;;5067406;28;20672;-59
2022/01/28 07:16:16;;;;;;;6.33;1.73;;;;;;;;;;5046485;28;20647;-59
2022/01/28 07:18:42;;;;;;;8.47;1.97;;;;;;;;;;5048326;28;20275;-59
2022/01/28 07:21:08;;;;;;;8.83;2.67;;;;;;;;;;5049328;28;20203;-59
2022/01/28 07:23:35;;;;;;;10.43;3.07;;;;;;;;;;5070030;28;20716;-59
2022/01/28 07:26:04;;;;;;;9.33;2.20;;;;;;;;;;5063266;28;20710;-59
2022/01/28 07:28:32;;;;;;;10.73;2.03;;;;;;;;;;5075702;28;20200;-59
2022/01/28 07:31:01;;;;;;;5.67;2.27;;;;;;;;;;5063453;28;20688;-59
2022/01/28 07:33:30;;;;;;;9.00;2.40;;;;;;;;;;5069100;28;20572;-59
2022/01/28 07:35:57;;;;;;;5.60;2.20;;;;;;;;;;5049805;28;20685;-59
2022/01/28 07:38:40;;;;;;;3.13;1.97;;;;;;;;;;5067670;28;20185;-60
2022/01/28 07:41:07;;;;;;;4.17;1.70;;;;;;;;;;5060652;28;20671;-59
2022/01/28 07:43:37;;;;;;;10.03;2.13;;;;;;;;;;5053691;28;20733;-59
2022/01/28 07:46:04;;;;;;;7.90;2.53;;;;;;;;;;5066275;28;20246;-59
2022/01/28 07:48:30;;;;;;;7.43;2.03;;;;;;;;;;5055644;28;20191;-59
2022/01/28 07:50:56;;;;;;;5.87;1.73;;;;;;;;;;5054890;28;20171;-59
2022/01/28 07:53:25;;;;;;;7.30;2.23;;;;;;;;;;5067629;28;20303;-59
2022/01/28 07:55:51;;;;;;;5.57;2.33;;;;;;;;;;5078567;28;20631;-59
2022/01/28 07:58:18;;;;;;;11.53;2.50;;;;;;;;;;5071281;28;20725;-60
2022/01/28 08:00:47;;;;;;;8.67;2.40;;;;;;;;;;5069971;28;20193;-59
2022/01/28 08:03:13;;;;;;;6.77;2.17;;;;;;;;;;5073262;28;20499;-59
2022/01/28 08:05:39;;;;;;;5.67;2.27;;;;;;;;;;5077216;28;20702;-59
2022/01/28 08:08:08;;;;;;;9.00;2.57;;;;;;;;;;5072017;28;20185;-59
2022/01/28 08:10:37;;;;;;;7.27;2.30;;;;;;;;;;5090636;28;20262;-59
2022/01/28 08:13:05;;;;;;;6.80;2.07;;;;;;;;;;5101308;28;20176;-59
2022/01/28 08:15:32;;;;;;;4.73;1.90;;;;;;;;;;5104269;28;20187;-60
2022/01/28 08:17:58;;;;;;;7.60;2.00;;;;;;;;;;5058840;28;20211;-59
2022/01/28 08:20:29;;;;;;;8.33;2.40;;;;;;;;;;5061736;28;20392;-59
2022/01/28 08:22:59;;;;;;;6.33;2.13;;;;;;;;;;5082515;28;20190;-59
2022/01/28 08:25:26;;;;;;;6.53;2.43;;;;;;;;;;5060703;28;20202;-57
2022/01/28 08:27:52;;;;;;;8.50;2.23;;;;;;;;;;5070300;28;20184;-57
2022/01/28 08:30:21;;;;;;;7.80;2.70;;;;;;;;;;5063241;28;20533;-58
2022/01/28 08:32:49;;;;;;;7.87;2.37;;;;;;;;;;5073773;28;20179;-57
2022/01/28 08:35:15;;;;;;;5.30;2.23;;;;;;;;;;5089797;28;20198;-57
2022/01/28 08:37:41;;;;;;;7.37;2.50;;;;;;;;;;5082054;28;20554;-57
2022/01/28 08:40:09;;;;;;;11.73;2.43;;;;;;;;;;5074324;28;20199;-57
2022/01/28 08:42:35;;;;;;;12.57;2.83;;;;;;;;;;5070869;28;20168;-57
2022/01/28 08:45:01;;;;;;;6.20;2.20;;;;;;;;;;5074197;28;20597;-57
2022/01/28 08:47:27;;;;;;;6.63;2.13;;;;;;;;;;5070622;28;20174;-58
2022/01/28 08:49:54;;;;;;;6.33;2.47;;;;;;;;;;5051476;28;20185;-58
2022/01/28 08:52:20;;;;;;;5.53;2.03;;;;;;;;;;5077210;28;20171;-57
2022/01/28 08:54:47;;;;;;;9.07;2.00;;;;;;;;;;5082971;28;20190;-57
2022/01/28 08:57:13;;;;;;;3.70;2.17;;;;;;;;;;5088681;28;20276;-57
2022/01/28 08:59:40;;;;;;;10.87;2.70;;;;;;;;;;5088325;28;20223;-57
2022/01/28 09:02:06;;;;;;;10.40;2.07;;;;;;;;;;5069533;28;20207;-57
2022/01/28 09:04:33;;;;;;;4.77;2.10;;;;;;;;;;5082672;28;20210;-58
2022/01/28 09:06:59;;;;;;;5.10;2.43;;;;;;;;;;5098557;28;20695;-57
2022/01/28 09:09:26;;;;;;;4.40;2.30;;;;;;;;;;5070550;28;20650;-57
2022/01/28 09:14:24;;;;;;;4.47;2.47;;;;;;;;;;5080242;28;20189;-57
2022/01/28 09:16:52;;;;;;;4.03;1.80;;;;;;;;;;5087693;28;20645;-57
2022/01/28 09:19:19;;;;;;;7.50;2.70;;;;;;;;;;5068918;28;20180;-57
2022/01/28 09:21:45;;;;;;;6.13;2.80;;;;;;;;;;5064255;28;20188;-57
2022/01/28 09:24:12;;;;;;;5.73;2.50;;;;;;;;;;5083897;28;20180;-58
2022/01/28 09:26:38;;;;;;;7.60;2.13;;;;;;;;;;5086605;28;20192;-57
2022/01/28 09:29:04;;;;;;;6.20;2.30;;;;;;;;;;5077391;28;20191;-58
2022/01/28 09:31:31;;;;;;;9.83;2.47;;;;;;;;;;5090202;28;20512;-57
2022/01/28 09:33:57;;;;;;;8.57;2.97;;;;;;;;;;5100174;28;20177;-57
2022/01/28 09:36:23;;;;;;;9.23;2.50;;;;;;;;;;5075183;28;20174;-57
2022/01/28 09:38:49;;;;;;;5.23;2.57;;;;;;;;;;5065639;28;20296;-57
2022/01/28 09:41:16;;;;;;;5.93;2.27;;;;;;;;;;5087431;28;20180;-57
2022/01/28 09:43:44;;;;;;;6.17;2.63;;;;;;;;;;5069307;28;20192;-58
2022/01/28 09:46:10;;;;;;;5.00;2.10;;;;;;;;;;5080410;28;20211;-57
2022/01/28 09:48:36;;;;;;;10.73;2.97;;;;;;;;;;5069533;28;20654;-57
2022/01/28 09:51:04;;;;;;;5.13;2.53;;;;;;;;;;5071541;28;20180;-57
2022/01/28 09:53:30;;;;;;;4.27;2.43;;;;;;;;;;5069297;28;20582;-57
2022/01/28 09:55:57;;;;;;;4.93;2.63;;;;;;;;;;5074881;28;20646;-57
2022/01/28 09:58:23;;;;;;;4.60;2.53;;;;;;;;;;5097607;28;20226;-57
2022/01/28 10:00:50;;;;;;;6.37;2.57;;;;;;;;;;5081156;28;20235;-57
2022/01/28 10:03:17;;;;;;;10.13;3.03;;;;;;;;;;5078326;28;20170;-57
2022/01/28 10:05:44;;;;;;;4.30;2.70;;;;;;;;;;5094656;28;20195;-58
2022/01/28 10:08:17;;;;;;;7.73;2.90;;;;;;;;;;5069755;28;20460;-57
2022/01/28 10:10:44;;;;;;;7.33;2.77;;;;;;;;;;5072627;28;20642;-57
2022/01/28 10:13:20;;;;;;;5.73;2.53;;;;;;;;;;5070813;28;20193;-58
2022/01/28 10:16:00;;;;;;;5.57;2.53;;;;;;;;;;5061192;28;20187;-58
2022/01/28 10:18:56;;;;;;;4.20;2.20;;;;;;;;;;5084975;28;20234;-57
2022/01/28 10:21:22;;;;;;;12.13;2.67;;;;;;;;;;5066472;28;20192;-58
2022/01/28 10:23:58;;;;;;;5.63;2.97;;;;;;;;;;5086661;28;20653;-57
2022/01/28 10:26:31;;;;;;;6.10;2.40;;;;;;;;;;5079814;28;20228;-58
2022/01/28 10:28:58;;;;;;;8.00;2.67;;;;;;;;;;5068665;28;20171;-57
2022/01/28 10:31:38;;;;;;;4.90;2.43;;;;;;;;;;5073063;28;20266;-58
2022/01/28 10:34:23;;;;;;;5.23;2.93;;;;;;;;;;5091743;28;20486;-57
2022/01/28 10:36:50;;;;;;;6.27;2.53;;;;;;;;;;5067247;28;20543;-57
2022/01/28 10:39:21;;;;;;;9.43;2.73;;;;;;;;;;5048625;28;20204;-57
2022/01/28 10:41:54;;;;;;;8.17;3.10;;;;;;;;;;5078797;28;20184;-58
2022/01/28 10:44:24;;;;;;;7.50;2.43;;;;;;;;;;5087363;28;20543;-57
2022/01/28 10:46:52;;;;;;;7.97;2.40;;;;;;;;;;5083099;28;20545;-58
2022/01/28 10:49:19;;;;;;;7.10;2.47;;;;;;;;;;5081706;28;20546;-58
2022/01/28 10:51:50;;;;;;;10.47;3.00;;;;;;;;;;5070322;28;20644;-58
2022/01/28 10:54:18;;;;;;;11.70;3.27;;;;;;;;;;5067637;28;20650;-57
2022/01/28 10:57:11;;;;;;;6.90;3.33;;;;;;;;;;5069485;28;20714;-57
2022/01/28 10:59:41;;;;;;;8.73;2.27;;;;;;;;;;5091274;28;20219;-58
2022/01/28 11:02:07;;;;;;;4.07;2.17;;;;;;;;;;5091283;28;20550;-57
2022/01/28 11:04:34;;;;;;;9.33;2.80;;;;;;;;;;5078656;28;20637;-57
2022/01/28 11:07:01;;;;;;;7.60;2.33;;;;;;;;;;5091634;28;20258;-58
2022/01/28 11:09:29;;;;;;;7.53;2.70;;;;;;;;;;5081485;28;20179;-58
2022/01/28 11:11:56;;;;;;;6.43;3.10;;;;;;;;;;5069801;28;20191;-57
2022/01/28 11:14:23;;;;;;;7.27;2.77;;;;;;;;;;5052273;28;20212;-58
2022/01/28 11:16:49;;;;;;;8.07;2.90;;;;;;;;;;5090919;28;20188;-57
2022/01/28 11:19:18;;;;;;;7.87;3.00;;;;;;;;;;5080253;28;20217;-58
2022/01/28 11:21:48;;;;;;;6.60;2.10;;;;;;;;;;5060076;28;20224;-56
2022/01/28 11:24:23;;;;;;;6.53;3.20;;;;;;;;;;5090899;28;21006;-58
2022/01/28 11:26:52;;;;;;;8.07;2.53;;;;;;;;;;5078110;28;20256;-57
2022/01/28 11:29:20;;;;;;;12.67;2.77;;;;;;;;;;5071357;28;20647;-58
2022/01/28 11:31:51;;;;;;;10.73;3.10;;;;;;;;;;5063884;28;20588;-56
2022/01/28 11:34:25;;;;;;;6.13;3.03;;;;;;;;;;5086630;28;20175;-57
2022/01/28 11:36:52;;;;;;;5.97;2.67;;;;;;;;;;5083725;28;21238;-57
2022/01/28 11:39:29;;;;;;;10.00;3.27;;;;;;;;;;5082576;28;20221;-57
2022/01/28 11:42:01;;;;;;;7.77;2.73;;;;;;;;;;5087945;28;20590;-56
2022/01/28 11:44:41;;;;;;;11.57;3.13;;;;;;;;;;5086723;28;20240;-58
2022/01/28 11:47:09;;;;;;;14.93;2.63;;;;;;;;;;5089617;28;20759;-57
2022/01/28 11:49:52;;;;;;;13.37;2.93;;;;;;;;;;5076031;28;20282;-58
2022/01/28 11:52:22;;;;;;;7.73;3.23;;;;;;;;;;5094927;28;20190;-57
2022/01/28 11:54:49;;;;;;;9.27;2.70;;;;;;;;;;5089891;28;20254;-57
2022/01/28 11:57:16;;;;;;;11.47;2.93;;;;;;;;;;5071572;28;20267;-57
2022/01/28 11:59:43;;;;;;;12.57;2.40;;;;;;;;;;5088731;28;20211;-57
2022/01/28 12:02:11;;;;;;;12.63;3.00;;;;;;;;;;5059566;28;20263;-57
2022/01/28 12:04:38;;;;;;;8.53;2.13;;;;;;;;;;5030940;28;20181;-57
2022/01/28 12:07:06;;;;;;;10.60;3.27;;;;;;;;;;5047259;28;20234;-58
2022/01/28 12:09:33;;;;;;;9.13;2.47;;;;;;;;;;5035407;28;20639;-58
2022/01/28 12:12:00;;;;;;;9.70;2.90;;;;;;;;;;5033950;28;20536;-58
2022/01/28 12:14:45;;;;;;;10.37;3.00;;;;;;;;;;5055923;28;20164;-58
2022/01/28 12:17:34;;;;;;;11.23;3.33;;;;;;;;;;5033162;28;20363;-57
2022/01/28 12:20:10;;;;;;;9.03;2.20;;;;;;;;;;5047479;28;20651;-58
2022/01/28 12:22:36;;;;;;;8.20;2.83;;;;;;;;;;5060590;28;20181;-58
2022/01/28 12:25:02;;;;;;;9.50;2.83;;;;;;;;;;5045741;28;20179;-58
2022/01/28 12:27:35;;;;;;;8.43;3.20;;;;;;;;;;5045707;28;20188;-58
2022/01/28 12:30:13;;;;;;;8.67;2.33;;;;;;;;;;5054617;28;20268;-58
2022/01/28 12:32:39;;;;;;;8.57;3.37;;;;;;;;;;5035737;28;20699;-58
2022/01/28 12:35:06;;;;;;;8.50;2.60;;;;;;;;;;5044062;28;20181;-58
2022/01/28 12:37:48;;;;;;;6.00;2.67;;;;;;;;;;5066981;28;20204;-58
2022/01/28 12:40:24;;;;;;;9.17;4.33;;;;;;;;;;5033676;28;20212;-58
2022/01/28 12:42:53;;;;;;;6.87;2.40;;;;;;;;;;5067320;28;20639;-58
2022/01/28 12:45:20;;;;;;;5.77;2.93;;;;;;;;;;5048072;28;20214;-58
2022/01/28 12:47:51;;;;;;;14.00;2.87;;;;;;;;;;5047906;28;20188;-58
2022/01/28 12:50:17;;;;;;;8.60;2.87;;;;;;;;;;5065964;28;20199;-58
2022/01/28 12:52:49;;;;;;;9.87;3.03;;;;;;;;;;5058103;28;20169;-58
2022/01/28 12:55:18;;;;;;;8.13;2.47;;;;;;;;;;5053223;28;20176;-58
2022/01/28 12:57:45;;;;;;;6.77;2.27;;;;;;;;;;5051054;28;20568;-58
2022/01/28 13:00:12;;;;;;;15.63;2.60;;;;;;;;;;5051490;28;20350;-58
2022/01/28 13:02:40;;;;;;;9.80;2.57;;;;;;;;;;5042011;28;20253;-58
2022/01/28 13:05:13;;;;;;;7.53;2.87;;;;;;;;;;5077042;28;20180;-57
2022/01/28 13:10:26;;;;;;;4.53;2.13;;;;;;;;;;5063890;28;20243;-57
2022/01/28 13:12:52;;;;;;;10.23;2.40;;;;;;;;;;5066957;28;20181;-58
2022/01/28 13:15:22;;;;;;;8.47;2.70;;;;;;;;;;5068452;28;20184;-58
2022/01/28 13:17:53;;;;;;;9.93;2.23;;;;;;;;;;5051532;28;20640;-58
2022/01/28 13:20:20;;;;;;;11.73;3.70;;;;;;;;;;5067629;28;20665;-57
2022/01/28 13:22:49;;;;;;;7.87;2.07;;;;;;;;;;5065567;28;20307;-58
2022/01/28 13:25:20;;;;;;;11.23;2.73;;;;;;;;;;5070175;28;20543;-58
2022/01/28 13:27:49;;;;;;;9.57;3.53;;;;;;;;;;5057811;28;20275;-58
2022/01/28 13:30:16;;;;;;;7.47;2.50;;;;;;;;;;5068678;28;20177;-58
2022/01/28 13:32:45;;;;;;;8.40;2.10;;;;;;;;;;5063616;28;20188;-58
2022/01/28 13:35:13;;;;;;;9.80;3.17;;;;;;;;;;5074660;28;20539;-58
2022/01/28 13:37:41;;;;;;;8.40;2.23;;;;;;;;;;5058683;28;20180;-58
2022/01/28 13:40:10;;;;;;;11.10;3.07;;;;;;;;;;5068262;28;20177;-57
2022/01/28 13:42:38;;;;;;;5.80;2.23;;;;;;;;;;5057949;28;20749;-58
2022/01/28 13:45:07;;;;;;;5.83;1.97;;;;;;;;;;5037873;28;20169;-58
2022/01/28 13:47:52;;;;;;;6.17;2.13;;;;;;;;;;5056104;28;20643;-58
2022/01/28 13:50:25;;;;;;;8.87;2.40;;;;;;;;;;5055653;28;20653;-58
2022/01/28 13:53:07;;;;;;;7.23;2.43;;;;;;;;;;5045996;28;20181;-60
2022/01/28 13:55:37;;;;;;;5.60;2.33;;;;;;;;;;5060521;28;20263;-58
2022/01/28 13:58:04;;;;;;;10.53;2.87;;;;;;;;;;5084275;28;20263;-59
2022/01/28 14:00:37;;;;;;;12.93;2.87;;;;;;;;;;5073038;28;20574;-58
2022/01/28 14:03:04;;;;;;;7.27;2.60;;;;;;;;;;5075343;28;20301;-58
2022/01/28 14:05:49;;;;;;;6.13;2.60;;;;;;;;;;5073132;28;20222;-58
2022/01/28 14:08:18;;;;;;;11.47;2.80;;;;;;;;;;5094879;28;20171;-58
2022/01/28 14:10:44;;;;;;;7.40;2.37;;;;;;;;;;5073839;28;20183;-58
2022/01/28 14:13:23;;;;;;;7.73;2.20;;;;;;;;;;5105247;28;20538;-57
2022/01/28 14:16:04;;;;;;;5.70;2.30;;;;;;;;;;5077528;28;20183;-58
2022/01/28 14:18:30;;;;;;;9.60;2.50;;;;;;;;;;5073994;28;20180;-58
2022/01/28 14:20:58;;;;;;;5.83;2.20;;;;;;;;;;5093951;28;20182;-58
2022/01/28 14:23:25;;;;;;;5.57;2.03;;;;;;;;;;5081589;28;20660;-58
2022/01/28 14:25:51;;;;;;;5.37;2.20;;;;;;;;;;5078946;28;20214;-57
2022/01/28 14:30:55;;;;;;;7.07;2.33;;;;;;;;;;5081427;28;20180;-58
2022/01/28 14:33:28;;;;;;;5.77;2.30;;;;;;;;;;5059845;28;20178;-58
2022/01/28 14:35:54;;;;;;;5.67;2.63;;;;;;;;;;5077435;28;20180;-58
2022/01/28 14:38:20;;;;;;;8.97;2.60;;;;;;;;;;5082174;28;20525;-58
2022/01/28 14:40:46;;;;;;;6.60;2.40;;;;;;;;;;5065677;28;20310;-58
2022/01/28 14:43:12;;;;;;;5.83;2.13;;;;;;;;;;5085287;28;20250;-57
2022/01/28 14:45:39;;;;;;;5.87;3.00;;;;;;;;;;5083949;28;20231;-57
2022/01/28 14:48:05;;;;;;;5.03;2.73;;;;;;;;;;5067504;28;20164;-57
2022/01/28 14:50:33;;;;;;;4.63;1.87;;;;;;;;;;5075194;28;20596;-57
2022/01/28 14:53:03;;;;;;;3.30;2.00;;;;;;;;;;5090584;28;20899;-58
2022/01/28 14:55:33;;;;;;;5.40;2.30;;;;;;;;;;5069579;28;20270;-57
2022/01/28 14:57:59;;;;;;;5.23;2.27;;;;;;;;;;5059069;28;20206;-57
2022/01/28 15:00:25;;;;;;;4.57;2.47;;;;;;;;;;5070924;28;20191;-57
2022/01/28 15:02:54;;;;;;;4.47;2.50;;;;;;;;;;5090727;28;20171;-57
2022/01/28 15:05:21;;;;;;;4.50;2.17;;;;;;;;;;5086598;28;20171;-57
2022/01/28 15:07:47;;;;;;;3.47;2.30;;;;;;;;;;5082155;28;20384;-57
2022/01/28 15:10:14;;;;;;;7.63;2.27;;;;;;;;;;5072295;28;20180;-57
2022/01/28 15:12:41;;;;;;;5.87;2.10;;;;;;;;;;5062727;28;20218;-57
2022/01/28 15:15:07;;;;;;;5.90;1.93;;;;;;;;;;5066839;28;20646;-57
2022/01/28 15:17:33;;;;;;;5.43;2.60;;;;;;;;;;5069151;28;20248;-57
2022/01/28 15:20:01;;;;;;;14.03;3.30;;;;;;;;;;5077804;28;20180;-57
2022/01/28 15:22:27;;;;;;;6.37;3.17;;;;;;;;;;5085533;28;20175;-57
2022/01/28 15:24:54;;;;;;;7.27;3.13;;;;;;;;;;5078998;28;20183;-55
2022/01/28 15:27:20;;;;;;;8.20;3.67;;;;;;;;;;5085162;28;20291;-55
2022/01/28 15:29:58;;;;;;;8.17;3.40;;;;;;;;;;5079637;28;20188;-55
2022/01/28 15:35:51;;;;;;;8.03;3.67;;;;;;;;;;5076412;28;20212;-56
2022/01/28 15:38:13;;;;;;;9.67;3.37;;;;;;;;;;5076408;28;20176;-55
2022/01/28 15:40:39;;;;;;;4.07;3.13;;;;;;;;;;5089571;28;20259;-55
2022/01/28 15:43:06;;;;;;;7.57;4.20;;;;;;;;;;5074985;28;20184;-57
2022/01/28 15:45:33;;;;;;;8.73;3.83;;;;;;;;;;5070537;28;20603;-58
2022/01/28 15:47:59;;;;;;;8.43;3.93;;;;;;;;;;5050985;28;20184;-58
2022/01/28 15:50:29;;;;;;;6.00;3.63;;;;;;;;;;5087574;28;20225;-57
2022/01/28 15:52:58;;;;;;;9.37;4.57;;;;;;;;;;5083704;28;20180;-58
2022/01/28 15:55:24;;;;;;;9.77;3.93;;;;;;;;;;5077463;28;20409;-57
2022/01/28 15:57:56;;;;;;;9.70;4.20;;;;;;;;;;5054576;28;20208;-57
2022/01/28 16:00:22;;;;;;;6.37;3.80;;;;;;;;;;5059275;28;20590;-57
2022/01/28 16:02:48;;;;;;;7.73;4.47;;;;;;;;;;5083761;28;20199;-58
2022/01/28 16:05:15;;;;;;;11.37;4.47;;;;;;;;;;5089690;28;20199;-58
2022/01/28 16:07:41;;;;;;;11.57;4.83;;;;;;;;;;5083779;28;20647;-57
2022/01/28 16:10:12;;;;;;;9.47;4.90;;;;;;;;;;5071882;28;20172;-57
2022/01/28 16:15:23;;;;;;;10.73;5.43;;;;;;;;;;5075664;28;20275;-57
2022/01/28 16:17:50;;;;;;;7.13;4.73;;;;;;;;;;5074859;28;20244;-57
2022/01/28 16:20:17;;;;;;;9.60;5.37;;;;;;;;;;5081587;28;20182;-57
2022/01/28 16:22:43;;;;;;;9.03;5.00;;;;;;;;;;5071288;28;20602;-55
2022/01/28 16:25:10;;;;;;;7.43;5.20;;;;;;;;;;5078915;28;20230;-58
2022/01/28 16:27:39;;;;;;;11.63;7.23;;;;;;;;;;5068492;28;20580;-57
2022/01/28 16:30:06;;;;;;;9.57;5.30;;;;;;;;;;5060441;28;20557;-58
2022/01/28 16:32:32;;;;;;;10.20;6.23;;;;;;;;;;5071525;28;20233;-58